Marshall, WA (99020)

1:51 PM PDT on September 17, 2014 (GMT -0700)
Paradise Rim | Change Station
CLOSE
Current Station
Personal Weather Station
Location: Spokane, WA
Elevation: 2346 ft
Nearby Weather Stations

Elev 2346 ft 47.57 °N, 117.43 °W | Updated 11 seconds ago

Mostly Cloudy
Mostly Cloudy
83.8 °F
Feels Like 81 °F
N
0.0
Wind Variable Wind from NNW
Gusts 0.0 mph

Today
High -- | Low -- °F
--% Chance of Precip.
Yesterday
High -- | Low -- °F
Precip. -- in
6:30 AM 6:57 PM
Waning Crescent, 33% visible
Pressure 29.74 in
Visibility 10.0 miles
Clouds Few 9500 ft
Mostly Cloudy 14000 ft
Mostly Cloudy 20000 ft
Heat Index 81 °F
Dew Point 30 °F
Humidity 14%
Rainfall 0.00 in
Snow Depth 0 in , 0 in , 0 in
UV 3 out of 12
Pollen 6.90 out of 12
PM2.5 Moderate
Flu Activity Not available.
METAR KGEG 171953Z 04003KT 10SM FEW095 BKN140 BKN200 25/06 A2979 RMK AO2 SLP071 VIRGA T02500061

More Conditions Fewer Conditions

Pressure 29.74 in
Visibility 10.0 miles
Clouds Few 9500 ft
Mostly Cloudy 14000 ft
Mostly Cloudy 20000 ft
Heat Index 81 °F
Dew Point 30 °F
Humidity 14%
Rainfall 0.00 in
Snow Depth 0 in , 0 in , 0 in
UV 3 out of 12
Pollen 6.90 out of 12
PM2.5 Moderate
Flu Activity Not available.
METAR KGEG 171953Z 04003KT 10SM FEW095 BKN140 BKN200 25/06 A2979 RMK AO2 SLP071 VIRGA T02500061

More Conditions Fewer Conditions

10-Day Weather Forecast

Almanac

Astronomy

Sep. 17, 2014 Rise Set
Actual Time 6:30 AM PDT 6:57 PM PDT
Civil Twilight 5:59 AM PDT 7:28 PM PDT
Nautical Twilight 5:22 AM PDT 8:05 PM PDT
Astronomical Twilight 4:44 AM PDT 8:42 PM PDT
Moon 12:16 AM PDT 3:27 PM PDT
Length of Visible Light 13h 29m
Length of Day
12h 27m
Tomorrow will be 3m 24s shorter.
Waning Crescent, 33% of the Moon is Illuminated
Today
Waning Crescent
Sep 24
New
Oct 1
First Quarter
Oct 8
Full
Oct 15
Last Quarter

Today's Extremes

State Highs State Lows

Community

WunderPhotos

Upload Photos

1,754,161 photos uploaded!

WunderBlogs® & News

Nearby

Air Quality

  Air Quality AQ Index Pollutant
Yesterday Good
PM10
Yesterday Good
OZONE
Current Moderate
PM2.5
Wednesday Good
PM10
Wednesday Good
OZONE
Thursday Good
PM10
Thursday Good
OZONE

Snow Depth

Station Depth Elevation
Stevens Pass 0 in 4070 ft
Sentinel Butte 0 in 4920 ft
Beaver Pass 0 in 3620 ft
Wells Creek 0 in 4200 ft
Lost Horse 0 in 5000 ft

Earthquake Activity

City Distance Mag. Time & Date
No recent earthquake activity has been reported nearby.
Minimum magnitude displayed is 2.5.

Coastal Water Temperatures

Place Temperature
No Stations Reporting

Nearby Weather Stations